LTAILTAN

Guest
Details From LTAI - Antalya
To LTAN - KONYA
Flight Number -
Tags decoded
Created
Modified
Stats Distance 130 nm / 241 km
Max Altitude 0 ft / 0 m
Waypoints 3
Social Downloads 0
Likes 0
Share VATSIM

Download

Looking for another format? Having issues loading an existing format? Contact us
Advertisement - Login to hide

Notes

Requested: LTAI AL034 AL035 AL026 HISAR PENON LUMOS LTAN Unmatched points: AL034 AL035 AL026 PENON LUMOS

Route

LTAI HISAR LTAN

ID Type Via Altitude Latitude Longitude Leg Dist Tot Dist Heading (true) Name
O LTAI APT - 0 ft / 0 m 36.89960˚ 30.79751˚ - 0 nm - Antalya
HISAR FIX - 0 ft / 0 m 38.11556˚ 31.54111˚ 81 nm 81 nm 26° / 26° -
O LTAN APT - 0 ft / 0 m 37.97900˚ 32.56185˚ 48 nm 130 nm 99° / 100° KONYA

Altitude Profile

Advertisement - Login to hide

LTAI

Details ICAO LTAI (AYT)
Name Antalya
Region Turkey
Timezone Europe/Istanbul (UTC+3.0)
Stats Elevation 177 ft / 54 m (AMSL)
Location 36.899598° 30.797507°
Runways 3
Magnetic Variation 5.112° E

METAR

LTAI 250120Z 01006KT 9999 FEW015CB BKN030 22/20 Q1006 NOSIG

Decode

TAF

Not found

Departure Runways

ID Width Length Bearing (true) Bearing (mag) Surface Threshold Offset Overrun Length
18C 148 ft / 45 m 11,137 ft / 3,394 m 186.26° 181.15° Concrete 0 ft / 0 m 197 ft / 60 m
18L 148 ft / 45 m 11,180 ft / 3,408 m 186.28° 181.17° Concrete 0 ft / 0 m 197 ft / 60 m
18R 148 ft / 45 m 9,789 ft / 2,984 m 186.25° 181.14° Asphalt 0 ft / 0 m 984 ft / 300 m
36C 148 ft / 45 m 11,137 ft / 3,394 m 6.25° 1.14° Concrete 0 ft / 0 m 197 ft / 60 m
36L 148 ft / 45 m 9,789 ft / 2,984 m 6.25° 1.14° Asphalt 0 ft / 0 m 984 ft / 300 m
36R 148 ft / 45 m 11,180 ft / 3,408 m 6.28° 1.17° Concrete 0 ft / 0 m 197 ft / 60 m

LTAN

Details ICAO LTAN (KYA)
Name KONYA
Region Turkey
Timezone Europe/Istanbul (UTC+3.0)
Stats Elevation 3,381 ft / 1,031 m (AMSL)
Location 37.979000° 32.561847°
Runways 1
Magnetic Variation 5.386° E

METAR

LTAN 250050Z 36008KT 9999 FEW040 14/10 Q1011 NOSIG

Decode

TAF

Not found

Destination Runways

ID Width Length Bearing (true) Bearing (mag) Surface Threshold Offset Overrun Length
01 148 ft / 45 m 11,008 ft / 3,355 m 16.74° 11.35° Asphalt 0 ft / 0 m 328 ft / 100 m
19 148 ft / 45 m 11,008 ft / 3,355 m 196.75° 191.36° Asphalt 0 ft / 0 m 328 ft / 100 m

Popular Alternatives